sensor_id;sensor_type;location;lat;lon;timestamp;pressure;altitude;pressure_sealevel;temperature;humidity
64192;BME280;50497;50.720;-2.084;2023-04-03T00:01:15;103316.81;;;4.58;100.00
64192;BME280;50497;50.720;-2.084;2023-04-03T00:03:43;103355.19;;;4.79;100.00
64192;BME280;50497;50.720;-2.084;2023-04-03T00:06:10;103362.38;;;4.86;100.00
64192;BME280;50497;50.720;-2.084;2023-04-03T00:08:37;103364.28;;;4.92;100.00
64192;BME280;50497;50.720;-2.084;2023-04-03T00:11:04;103365.25;;;4.97;100.00
64192;BME280;50497;50.720;-2.084;2023-04-03T00:13:32;103331.19;;;4.73;100.00
64192;BME280;50497;50.720;-2.084;2023-04-03T00:16:03;103367.88;;;4.95;100.00
64192;BME280;50497;50.720;-2.084;2023-04-03T00:18:29;103365.31;;;5.00;100.00
64192;BME280;50497;50.720;-2.084;2023-04-03T00:20:55;103359.94;;;4.97;100.00
64192;BME280;50497;50.720;-2.084;2023-04-03T00:23:25;103351.03;;;4.92;100.00
64192;BME280;50497;50.720;-2.084;2023-04-03T00:25:51;103364.50;;;5.04;100.00
64192;BME280;50497;50.720;-2.084;2023-04-03T00:28:22;103348.31;;;4.89;100.00
64192;BME280;50497;50.720;-2.084;2023-04-03T00:30:54;103374.22;;;5.04;100.00
64192;BME280;50497;50.720;-2.084;2023-04-03T00:33:20;103360.84;;;4.97;100.00
64192;BME280;50497;50.720;-2.084;2023-04-03T00:35:46;103357.13;;;4.88;100.00
64192;BME280;50497;50.720;-2.084;2023-04-03T00:38:15;103355.25;;;4.82;100.00
64192;BME280;50497;50.720;-2.084;2023-04-03T00:40:46;103342.75;;;4.76;100.00
64192;BME280;50497;50.720;-2.084;2023-04-03T00:43:24;103348.25;;;4.86;100.00
64192;BME280;50497;50.720;-2.084;2023-04-03T00:45:59;103341.25;;;4.91;100.00
64192;BME280;50497;50.720;-2.084;2023-04-03T00:48:46;103341.38;;;4.97;100.00
64192;BME280;50497;50.720;-2.084;2023-04-03T00:51:24;103311.88;;;4.78;100.00
64192;BME280;50497;50.720;-2.084;2023-04-03T00:53:59;103342.16;;;4.93;100.00
64192;BME280;50497;50.720;-2.084;2023-04-03T00:56:33;103312.69;;;4.76;100.00
64192;BME280;50497;50.720;-2.084;2023-04-03T00:59:07;103337.59;;;4.84;100.00
64192;BME280;50497;50.720;-2.084;2023-04-03T01:01:37;103336.63;;;4.79;100.00
64192;BME280;50497;50.720;-2.084;2023-04-03T01:04:03;103338.25;;;4.71;100.00
64192;BME280;50497;50.720;-2.084;2023-04-03T01:06:36;103299.81;;;4.47;100.00
64192;BME280;50497;50.720;-2.084;2023-04-03T01:09:03;103300.47;;;4.35;100.00
64192;BME280;50497;50.720;-2.084;2023-04-03T01:11:34;103329.00;;;4.49;100.00
64192;BME280;50497;50.720;-2.084;2023-04-03T01:13:59;103338.56;;;4.40;100.00
64192;BME280;50497;50.720;-2.084;2023-04-03T01:16:30;103325.25;;;4.39;100.00
64192;BME280;50497;50.720;-2.084;2023-04-03T01:19:00;103318.03;;;4.30;100.00
64192;BME280;50497;50.720;-2.084;2023-04-03T01:26:54;103298.94;;;4.04;100.00
64192;BME280;50497;50.720;-2.084;2023-04-03T01:29:24;103287.38;;;3.99;100.00
64192;BME280;50497;50.720;-2.084;2023-04-03T01:31:56;103288.94;;;3.91;100.00
64192;BME280;50497;50.720;-2.084;2023-04-03T01:34:22;103283.41;;;3.80;100.00
64192;BME280;50497;50.720;-2.084;2023-04-03T01:36:47;103270.00;;;3.70;100.00
64192;BME280;50497;50.720;-2.084;2023-04-03T01:39:20;103257.50;;;3.65;100.00
64192;BME280;50497;50.720;-2.084;2023-04-03T01:41:57;103251.94;;;3.53;100.00
64192;BME280;50497;50.720;-2.084;2023-04-03T01:44:28;103244.72;;;3.45;100.00
64192;BME280;50497;50.720;-2.084;2023-04-03T01:46:56;103207.97;;;3.20;100.00
64192;BME280;50497;50.720;-2.084;2023-04-03T01:49:24;103203.41;;;3.12;100.00
64192;BME280;50497;50.720;-2.084;2023-04-03T01:51:50;103215.91;;;3.20;100.00
64192;BME280;50497;50.720;-2.084;2023-04-03T01:54:20;103216.88;;;3.23;100.00
64192;BME280;50497;50.720;-2.084;2023-04-03T01:56:49;103186.28;;;2.96;100.00
64192;BME280;50497;50.720;-2.084;2023-04-03T01:59:14;103216.44;;;3.05;100.00
64192;BME280;50497;50.720;-2.084;2023-04-03T02:01:42;103189.50;;;2.83;100.00
64192;BME280;50497;50.720;-2.084;2023-04-03T02:04:15;103208.19;;;2.91;100.00
64192;BME280;50497;50.720;-2.084;2023-04-03T02:06:44;103209.00;;;2.88;100.00
64192;BME280;50497;50.720;-2.084;2023-04-03T02:09:14;103201.00;;;2.85;100.00
64192;BME280;50497;50.720;-2.084;2023-04-03T02:11:40;103199.97;;;2.80;100.00
64192;BME280;50497;50.720;-2.084;2023-04-03T02:14:05;103195.50;;;2.76;100.00
64192;BME280;50497;50.720;-2.084;2023-04-03T02:16:32;103200.69;;;2.73;100.00
64192;BME280;50497;50.720;-2.084;2023-04-03T02:19:00;103191.94;;;2.75;100.00
64192;BME280;50497;50.720;-2.084;2023-04-03T02:21:26;103192.72;;;2.71;100.00
64192;BME280;50497;50.720;-2.084;2023-04-03T02:23:58;103193.38;;;2.61;100.00
64192;BME280;50497;50.720;-2.084;2023-04-03T02:26:30;103194.13;;;2.57;100.00
64192;BME280;50497;50.720;-2.084;2023-04-03T02:29:04;103175.31;;;2.45;100.00
64192;BME280;50497;50.720;-2.084;2023-04-03T02:31:32;103196.50;;;2.46;100.00
64192;BME280;50497;50.720;-2.084;2023-04-03T02:33:57;103184.06;;;2.42;100.00
64192;BME280;50497;50.720;-2.084;2023-04-03T02:36:22;103190.09;;;2.36;100.00
64192;BME280;50497;50.720;-2.084;2023-04-03T02:38:52;103182.97;;;2.34;100.00
64192;BME280;50497;50.720;-2.084;2023-04-03T02:41:22;103181.91;;;2.27;100.00
64192;BME280;50497;50.720;-2.084;2023-04-03T02:43:52;103181.81;;;2.24;100.00
64192;BME280;50497;50.720;-2.084;2023-04-03T02:46:17;103173.84;;;2.21;100.00
64192;BME280;50497;50.720;-2.084;2023-04-03T02:48:43;103175.63;;;2.22;100.00
64192;BME280;50497;50.720;-2.084;2023-04-03T02:51:10;103176.34;;;2.16;100.00
64192;BME280;50497;50.720;-2.084;2023-04-03T02:53:36;103177.03;;;2.09;100.00
64192;BME280;50497;50.720;-2.084;2023-04-03T02:56:06;103169.06;;;2.06;100.00
64192;BME280;50497;50.720;-2.084;2023-04-03T02:58:34;103175.03;;;2.00;100.00
64192;BME280;50497;50.720;-2.084;2023-04-03T03:01:00;103175.88;;;1.98;100.00
64192;BME280;50497;50.720;-2.084;2023-04-03T03:03:30;103181.94;;;1.95;100.00
64192;BME280;50497;50.720;-2.084;2023-04-03T03:08:35;103179.13;;;1.89;100.00
64192;BME280;50497;50.720;-2.084;2023-04-03T03:11:09;103172.91;;;1.87;100.00
64192;BME280;50497;50.720;-2.084;2023-04-03T03:13:39;103178.16;;;1.85;100.00
64192;BME280;50497;50.720;-2.084;2023-04-03T03:16:05;103179.84;;;1.83;100.00
64192;BME280;50497;50.720;-2.084;2023-04-03T03:18:38;103175.34;;;1.79;100.00
64192;BME280;50497;50.720;-2.084;2023-04-03T03:21:09;103176.16;;;1.77;100.00
64192;BME280;50497;50.720;-2.084;2023-04-03T03:23:39;103173.38;;;1.72;100.00
64192;BME280;50497;50.720;-2.084;2023-04-03T03:26:09;103176.00;;;1.72;100.00
64192;BME280;50497;50.720;-2.084;2023-04-03T03:28:37;103168.78;;;1.65;100.00
64192;BME280;50497;50.720;-2.084;2023-04-03T03:31:03;103161.56;;;1.58;100.00
64192;BME280;50497;50.720;-2.084;2023-04-03T03:33:32;103169.66;;;1.65;100.00
64192;BME280;50497;50.720;-2.084;2023-04-03T03:36:01;103174.00;;;1.63;100.00
64192;BME280;50497;50.720;-2.084;2023-04-03T03:38:33;103170.41;;;1.60;100.00
64192;BME280;50497;50.720;-2.084;2023-04-03T03:40:59;103167.66;;;1.57;100.00
64192;BME280;50497;50.720;-2.084;2023-04-03T03:43:25;103157.94;;;1.56;100.00
64192;BME280;50497;50.720;-2.084;2023-04-03T03:45:54;103162.38;;;1.57;100.00
64192;BME280;50497;50.720;-2.084;2023-04-03T03:48:23;103176.38;;;1.54;100.00
64192;BME280;50497;50.720;-2.084;2023-04-03T03:50:50;103162.22;;;1.51;100.00
64192;BME280;50497;50.720;-2.084;2023-04-03T03:53:15;103163.03;;;1.48;100.00
64192;BME280;50497;50.720;-2.084;2023-04-03T03:55:45;103167.34;;;1.46;100.00
64192;BME280;50497;50.720;-2.084;2023-04-03T03:58:16;103172.66;;;1.47;100.00
64192;BME280;50497;50.720;-2.084;2023-04-03T04:00:45;103172.56;;;1.43;100.00
64192;BME280;50497;50.720;-2.084;2023-04-03T04:03:15;103179.47;;;1.39;100.00
64192;BME280;50497;50.720;-2.084;2023-04-03T04:05:44;103182.97;;;1.38;100.00
64192;BME280;50497;50.720;-2.084;2023-04-03T04:08:16;103179.34;;;1.35;100.00
64192;BME280;50497;50.720;-2.084;2023-04-03T04:10:45;103188.88;;;1.31;100.00
64192;BME280;50497;50.720;-2.084;2023-04-03T04:13:17;103194.88;;;1.25;100.00
64192;BME280;50497;50.720;-2.084;2023-04-03T04:15:53;103160.91;;;1.07;100.00
64192;BME280;50497;50.720;-2.084;2023-04-03T04:18:24;103174.91;;;1.05;100.00
64192;BME280;50497;50.720;-2.084;2023-04-03T04:20:56;103193.59;;;1.13;100.00
64192;BME280;50497;50.720;-2.084;2023-04-03T04:23:26;103199.69;;;1.10;100.00
64192;BME280;50497;50.720;-2.084;2023-04-03T04:25:58;103193.47;;;1.08;100.00
64192;BME280;50497;50.720;-2.084;2023-04-03T04:28:31;103195.13;;;1.06;100.00
64192;BME280;50497;50.720;-2.084;2023-04-03T04:31:00;103184.44;;;1.01;100.00
64192;BME280;50497;50.720;-2.084;2023-04-03T04:33:29;103189.59;;;0.97;100.00
64192;BME280;50497;50.720;-2.084;2023-04-03T04:36:00;103187.63;;;0.91;100.00
64192;BME280;50497;50.720;-2.084;2023-04-03T04:38:26;103189.28;;;0.87;100.00
64192;BME280;50497;50.720;-2.084;2023-04-03T04:40:58;103198.09;;;0.88;100.00
64192;BME280;50497;50.720;-2.084;2023-04-03T04:43:25;103196.25;;;0.85;100.00
64192;BME280;50497;50.720;-2.084;2023-04-03T04:46:09;103189.94;;;0.80;100.00
64192;BME280;50497;50.720;-2.084;2023-04-03T04:48:41;103198.91;;;0.85;100.00
64192;BME280;50497;50.720;-2.084;2023-04-03T04:51:06;103185.13;;;0.67;100.00
64192;BME280;50497;50.720;-2.084;2023-04-03T04:53:36;103206.50;;;0.76;100.00
64192;BME280;50497;50.720;-2.084;2023-04-03T04:56:02;103207.97;;;0.68;100.00
64192;BME280;50497;50.720;-2.084;2023-04-03T04:58:32;103213.06;;;0.62;100.00
64192;BME280;50497;50.720;-2.084;2023-04-03T05:01:02;103189.91;;;0.53;100.00
64192;BME280;50497;50.720;-2.084;2023-04-03T05:03:31;103195.19;;;0.53;100.00
64192;BME280;50497;50.720;-2.084;2023-04-03T05:05:57;103213.88;;;0.61;100.00
64192;BME280;50497;50.720;-2.084;2023-04-03T05:08:23;103205.66;;;0.51;100.00
64192;BME280;50497;50.720;-2.084;2023-04-03T05:10:52;103224.47;;;0.62;100.00
64192;BME280;50497;50.720;-2.084;2023-04-03T05:13:20;103226.34;;;0.65;100.00
64192;BME280;50497;50.720;-2.084;2023-04-03T05:15:52;103227.75;;;0.55;100.00
64192;BME280;50497;50.720;-2.084;2023-04-03T05:18:21;103228.66;;;0.55;100.00
64192;BME280;50497;50.720;-2.084;2023-04-03T05:20:53;103222.44;;;0.53;100.00
64192;BME280;50497;50.720;-2.084;2023-04-03T05:23:18;103226.56;;;0.45;100.00
64192;BME280;50497;50.720;-2.084;2023-04-03T05:25:44;103198.00;;;0.32;100.00
64192;BME280;50497;50.720;-2.084;2023-04-03T05:28:18;103230.94;;;0.46;100.00
64192;BME280;50497;50.720;-2.084;2023-04-03T05:30:43;103232.69;;;0.46;100.00
64192;BME280;50497;50.720;-2.084;2023-04-03T05:33:14;103228.19;;;0.42;100.00
64192;BME280;50497;50.720;-2.084;2023-04-03T05:35:39;103235.38;;;0.47;100.00
64192;BME280;50497;50.720;-2.084;2023-04-03T05:38:06;103210.25;;;0.31;100.00
64192;BME280;50497;50.720;-2.084;2023-04-03T05:40:32;103222.88;;;0.40;100.00
64192;BME280;50497;50.720;-2.084;2023-04-03T05:42:57;103230.00;;;0.44;100.00
64192;BME280;50497;50.720;-2.084;2023-04-03T05:45:32;103238.84;;;0.46;100.00
64192;BME280;50497;50.720;-2.084;2023-04-03T05:48:00;103239.91;;;0.51;100.00
64192;BME280;50497;50.720;-2.084;2023-04-03T05:50:28;103232.59;;;0.43;100.00
64192;BME280;50497;50.720;-2.084;2023-04-03T05:52:56;103249.63;;;0.52;100.00
64192;BME280;50497;50.720;-2.084;2023-04-03T05:55:32;103262.78;;;0.52;100.00
64192;BME280;50497;50.720;-2.084;2023-04-03T05:58:01;103231.47;;;0.36;100.00
64192;BME280;50497;50.720;-2.084;2023-04-03T06:00:26;103260.59;;;0.65;100.00
64192;BME280;50497;50.720;-2.084;2023-04-03T06:02:53;103255.50;;;0.71;100.00
64192;BME280;50497;50.720;-2.084;2023-04-03T06:05:18;103257.59;;;0.81;100.00
64192;BME280;50497;50.720;-2.084;2023-04-03T06:07:44;103258.84;;;0.92;100.00
64192;BME280;50497;50.720;-2.084;2023-04-03T06:10:12;103257.16;;;0.93;100.00
64192;BME280;50497;50.720;-2.084;2023-04-03T06:12:37;103259.22;;;1.03;100.00
64192;BME280;50497;50.720;-2.084;2023-04-03T06:15:07;103235.13;;;0.92;100.00
64192;BME280;50497;50.720;-2.084;2023-04-03T06:17:36;103261.16;;;1.09;100.00
64192;BME280;50497;50.720;-2.084;2023-04-03T06:20:06;103266.03;;;1.24;100.00
64192;BME280;50497;50.720;-2.084;2023-04-03T06:22:33;103274.16;;;1.30;100.00
64192;BME280;50497;50.720;-2.084;2023-04-03T06:25:05;103267.13;;;1.31;100.00
64192;BME280;50497;50.720;-2.084;2023-04-03T06:27:38;103273.31;;;1.33;100.00
64192;BME280;50497;50.720;-2.084;2023-04-03T06:30:06;103264.88;;;1.43;100.00
64192;BME280;50497;50.720;-2.084;2023-04-03T06:32:37;103266.81;;;1.48;100.00
64192;BME280;50497;50.720;-2.084;2023-04-03T06:35:05;103274.97;;;1.56;100.00
64192;BME280;50497;50.720;-2.084;2023-04-03T06:37:37;103263.88;;;1.68;100.00
64192;BME280;50497;50.720;-2.084;2023-04-03T06:40:07;103255.34;;;1.77;100.00
64192;BME280;50497;50.720;-2.084;2023-04-03T06:42:33;103248.53;;;1.85;100.00
64192;BME280;50497;50.720;-2.084;2023-04-03T06:45:06;103215.69;;;1.75;100.00
64192;BME280;50497;50.720;-2.084;2023-04-03T06:47:38;103250.72;;;2.00;100.00
64192;BME280;50497;50.720;-2.084;2023-04-03T06:50:10;103217.28;;;2.00;100.00
64192;BME280;50497;50.720;-2.084;2023-04-03T06:52:37;103220.34;;;2.14;100.00
64192;BME280;50497;50.720;-2.084;2023-04-03T06:55:06;103188.47;;;2.08;100.00
64192;BME280;50497;50.720;-2.084;2023-04-03T06:57:38;103216.44;;;2.33;100.00
64192;BME280;50497;50.720;-2.084;2023-04-03T07:00:07;103212.06;;;2.35;100.00
64192;BME280;50497;50.720;-2.084;2023-04-03T07:02:34;103194.84;;;2.50;100.00
64192;BME280;50497;50.720;-2.084;2023-04-03T07:04:59;103189.63;;;2.53;100.00
64192;BME280;50497;50.720;-2.084;2023-04-03T07:07:30;103173.97;;;2.62;100.00
64192;BME280;50497;50.720;-2.084;2023-04-03T07:10:00;103162.53;;;2.62;100.00
64192;BME280;50497;50.720;-2.084;2023-04-03T07:12:26;103133.38;;;2.58;100.00
64192;BME280;50497;50.720;-2.084;2023-04-03T07:14:58;103146.09;;;2.75;100.00
64192;BME280;50497;50.720;-2.084;2023-04-03T07:17:23;103127.00;;;2.87;100.00
64192;BME280;50497;50.720;-2.084;2023-04-03T07:19:50;103124.53;;;2.94;100.00
64192;BME280;50497;50.720;-2.084;2023-04-03T07:22:16;103114.31;;;3.11;100.00
64192;BME280;50497;50.720;-2.084;2023-04-03T07:24:43;103111.81;;;3.18;100.00
64192;BME280;50497;50.720;-2.084;2023-04-03T07:27:09;103109.31;;;3.24;100.00
64192;BME280;50497;50.720;-2.084;2023-04-03T07:29:35;103122.03;;;3.43;100.00
64192;BME280;50497;50.720;-2.084;2023-04-03T07:32:02;103114.16;;;3.46;100.00
64192;BME280;50497;50.720;-2.084;2023-04-03T07:34:31;103122.47;;;3.65;100.00
64192;BME280;50497;50.720;-2.084;2023-04-03T07:36:56;103129.72;;;3.75;100.00
64192;BME280;50497;50.720;-2.084;2023-04-03T07:39:23;103136.94;;;3.82;100.00
64192;BME280;50497;50.720;-2.084;2023-04-03T07:41:48;103113.78;;;3.70;100.00
64192;BME280;50497;50.720;-2.084;2023-04-03T07:44:13;103124.56;;;3.81;100.00
64192;BME280;50497;50.720;-2.084;2023-04-03T07:46:39;103141.38;;;3.85;100.00
64192;BME280;50497;50.720;-2.084;2023-04-03T07:49:05;103171.81;;;4.05;100.00
64192;BME280;50497;50.720;-2.084;2023-04-03T07:51:31;103163.63;;;3.93;100.00
64192;BME280;50497;50.720;-2.084;2023-04-03T07:53:56;103196.84;;;4.23;100.00
64192;BME280;50497;50.720;-2.084;2023-04-03T07:56:22;103205.91;;;4.34;100.00
64192;BME280;50497;50.720;-2.084;2023-04-03T07:58:48;103222.19;;;4.56;100.00
64192;BME280;50497;50.720;-2.084;2023-04-03T08:01:13;103212.38;;;5.66;100.00
64192;BME280;50497;50.720;-2.084;2023-04-03T08:03:39;103229.13;;;6.34;100.00
64192;BME280;50497;50.720;-2.084;2023-04-03T08:06:06;103320.97;;;6.90;100.00
64192;BME280;50497;50.720;-2.084;2023-04-03T08:08:36;103397.41;;;8.17;100.00
64192;BME280;50497;50.720;-2.084;2023-04-03T08:11:02;103525.81;;;7.59;100.00
64192;BME280;50497;50.720;-2.084;2023-04-03T08:13:28;103587.34;;;7.87;100.00
64192;BME280;50497;50.720;-2.084;2023-04-03T08:15:57;103600.34;;;7.54;100.00
64192;BME280;50497;50.720;-2.084;2023-04-03T08:18:24;103623.34;;;8.37;100.00
64192;BME280;50497;50.720;-2.084;2023-04-03T08:20:55;103662.28;;;8.14;100.00
64192;BME280;50497;50.720;-2.084;2023-04-03T08:23:20;103693.94;;;7.82;100.00
64192;BME280;50497;50.720;-2.084;2023-04-03T08:25:46;103685.00;;;7.80;100.00
64192;BME280;50497;50.720;-2.084;2023-04-03T08:28:15;103646.94;;;8.93;100.00
64192;BME280;50497;50.720;-2.084;2023-04-03T08:30:41;103724.44;;;9.05;100.00
64192;BME280;50497;50.720;-2.084;2023-04-03T08:33:08;103700.06;;;10.59;100.00
64192;BME280;50497;50.720;-2.084;2023-04-03T08:35:41;103734.84;;;10.70;100.00
64192;BME280;50497;50.720;-2.084;2023-04-03T08:38:07;103726.78;;;11.05;100.00
64192;BME280;50497;50.720;-2.084;2023-04-03T08:40:34;103704.81;;;12.32;100.00
64192;BME280;50497;50.720;-2.084;2023-04-03T08:48:16;103625.59;;;11.68;100.00
64192;BME280;50497;50.720;-2.084;2023-04-03T08:50:47;103552.41;;;11.47;100.00
64192;BME280;50497;50.720;-2.084;2023-04-03T08:53:23;103529.09;;;12.62;100.00
64192;BME280;50497;50.720;-2.084;2023-04-03T08:55:58;103448.78;;;11.43;100.00
64192;BME280;50497;50.720;-2.084;2023-04-03T08:58:29;103391.97;;;12.71;100.00
64192;BME280;50497;50.720;-2.084;2023-04-03T09:01:42;103278.00;;;12.88;100.00
64192;BME280;50497;50.720;-2.084;2023-04-03T09:04:18;103204.22;;;13.54;100.00
64192;BME280;50497;50.720;-2.084;2023-04-03T09:06:49;102813.09;;;13.28;100.00
64192;BME280;50497;50.720;-2.084;2023-04-03T09:09:46;103082.56;;;13.82;100.00
64192;BME280;50497;50.720;-2.084;2023-04-03T09:12:21;103019.53;;;15.80;100.00
64192;BME280;50497;50.720;-2.084;2023-04-03T09:15:00;102949.38;;;16.79;100.00
64192;BME280;50497;50.720;-2.084;2023-04-03T09:20:21;102963.22;;;14.50;100.00
64192;BME280;50497;50.720;-2.084;2023-04-03T09:22:50;102953.56;;;15.06;100.00
64192;BME280;50497;50.720;-2.084;2023-04-03T09:25:22;102974.00;;;16.47;100.00
64192;BME280;50497;50.720;-2.084;2023-04-03T09:27:52;102970.81;;;16.60;100.00
64192;BME280;50497;50.720;-2.084;2023-04-03T09:30:21;102945.69;;;16.08;100.00
64192;BME280;50497;50.720;-2.084;2023-04-03T09:32:50;102965.91;;;16.47;100.00
64192;BME280;50497;50.720;-2.084;2023-04-03T09:35:36;102961.06;;;16.31;100.00
64192;BME280;50497;50.720;-2.084;2023-04-03T09:41:16;102953.06;;;16.03;100.00
64192;BME280;50497;50.720;-2.084;2023-04-03T09:43:52;102945.34;;;15.37;97.70
64192;BME280;50497;50.720;-2.084;2023-04-03T09:46:33;102918.34;;;15.10;100.00
64192;BME280;50497;50.720;-2.084;2023-04-03T09:49:10;102960.13;;;14.66;100.00
64192;BME280;50497;50.720;-2.084;2023-04-03T09:51:42;102945.84;;;15.22;100.00
64192;BME280;50497;50.720;-2.084;2023-04-03T09:54:32;102948.75;;;16.24;100.00
64192;BME280;50497;50.720;-2.084;2023-04-03T09:57:06;102952.19;;;16.53;100.00
64192;BME280;50497;50.720;-2.084;2023-04-03T09:59:32;102942.63;;;17.37;100.00
64192;BME280;50497;50.720;-2.084;2023-04-03T10:02:22;102946.66;;;17.27;100.00
64192;BME280;50497;50.720;-2.084;2023-04-03T10:05:03;102947.84;;;16.49;91.25
64192;BME280;50497;50.720;-2.084;2023-04-03T10:07:34;102954.44;;;16.65;100.00
64192;BME280;50497;50.720;-2.084;2023-04-03T10:10:17;102960.94;;;15.84;95.27
64192;BME280;50497;50.720;-2.084;2023-04-03T10:12:46;102960.56;;;15.95;100.00
64192;BME280;50497;50.720;-2.084;2023-04-03T10:15:16;102963.34;;;16.92;100.00
64192;BME280;50497;50.720;-2.084;2023-04-03T10:17:58;102960.81;;;15.87;100.00
64192;BME280;50497;50.720;-2.084;2023-04-03T10:20:41;102958.06;;;15.88;98.72
64192;BME280;50497;50.720;-2.084;2023-04-03T10:23:17;102966.97;;;16.91;100.00
64192;BME280;50497;50.720;-2.084;2023-04-03T10:31:42;102972.16;;;16.23;94.67
64192;BME280;50497;50.720;-2.084;2023-04-03T10:34:28;102961.03;;;14.96;100.00
64192;BME280;50497;50.720;-2.084;2023-04-03T10:37:29;102963.25;;;15.68;100.00
64192;BME280;50497;50.720;-2.084;2023-04-03T10:51:47;102963.66;;;15.84;100.00
64192;BME280;50497;50.720;-2.084;2023-04-03T10:54:20;102967.13;;;13.71;100.00
64192;BME280;50497;50.720;-2.084;2023-04-03T10:57:01;102949.59;;;15.46;100.00
64192;BME280;50497;50.720;-2.084;2023-04-03T11:02:25;102950.31;;;15.23;100.00
64192;BME280;50497;50.720;-2.084;2023-04-03T11:04:56;102947.31;;;14.74;100.00
64192;BME280;50497;50.720;-2.084;2023-04-03T11:07:32;102943.25;;;15.74;100.00
64192;BME280;50497;50.720;-2.084;2023-04-03T11:10:05;102951.63;;;15.66;100.00
64192;BME280;50497;50.720;-2.084;2023-04-03T11:12:43;102913.06;;;16.14;100.00
64192;BME280;50497;50.720;-2.084;2023-04-03T11:15:16;102905.94;;;18.74;98.99
64192;BME280;50497;50.720;-2.084;2023-04-03T11:18:01;102950.72;;;16.44;98.94
64192;BME280;50497;50.720;-2.084;2023-04-03T11:20:32;102933.88;;;16.85;98.94
64192;BME280;50497;50.720;-2.084;2023-04-03T11:26:18;102933.91;;;16.11;100.00
64192;BME280;50497;50.720;-2.084;2023-04-03T11:28:44;102933.53;;;16.94;100.00
64192;BME280;50497;50.720;-2.084;2023-04-03T11:31:25;102941.25;;;15.80;96.70
64192;BME280;50497;50.720;-2.084;2023-04-03T11:36:41;102918.13;;;18.84;95.59
64192;BME280;50497;50.720;-2.084;2023-04-03T11:41:44;102932.69;;;16.68;92.97
64192;BME280;50497;50.720;-2.084;2023-04-03T11:44:32;102898.25;;;16.73;98.78
64192;BME280;50497;50.720;-2.084;2023-04-03T11:47:02;102924.88;;;17.08;96.95
64192;BME280;50497;50.720;-2.084;2023-04-03T11:50:00;102912.06;;;17.35;83.90
64192;BME280;50497;50.720;-2.084;2023-04-03T12:16:26;102886.16;;;16.84;100.00
64192;BME280;50497;50.720;-2.084;2023-04-03T12:35:50;102872.75;;;17.89;100.00
64192;BME280;50497;50.720;-2.084;2023-04-03T12:38:40;102876.31;;;16.10;97.24
64192;BME280;50497;50.720;-2.084;2023-04-03T12:44:27;102858.56;;;18.24;80.94
64192;BME280;50497;50.720;-2.084;2023-04-03T12:47:08;102869.31;;;19.03;92.88
64192;BME280;50497;50.720;-2.084;2023-04-03T12:49:42;102852.28;;;16.73;86.95
64192;BME280;50497;50.720;-2.084;2023-04-03T12:52:44;102857.13;;;17.11;100.00
64192;BME280;50497;50.720;-2.084;2023-04-03T12:55:18;102869.94;;;15.87;100.00
64192;BME280;50497;50.720;-2.084;2023-04-03T12:57:48;102836.16;;;17.79;100.00
64192;BME280;50497;50.720;-2.084;2023-04-03T13:00:21;102852.94;;;18.28;100.00
64192;BME280;50497;50.720;-2.084;2023-04-03T13:02:51;102843.25;;;19.35;97.21
64192;BME280;50497;50.720;-2.084;2023-04-03T13:05:18;102838.44;;;17.05;88.87
64192;BME280;50497;50.720;-2.084;2023-04-03T13:07:49;102836.47;;;18.52;100.00
64192;BME280;50497;50.720;-2.084;2023-04-03T13:10:17;102845.47;;;18.91;100.00
64192;BME280;50497;50.720;-2.084;2023-04-03T13:12:57;102830.16;;;17.09;92.53
64192;BME280;50497;50.720;-2.084;2023-04-03T13:15:29;102829.50;;;16.80;100.00
64192;BME280;50497;50.720;-2.084;2023-04-03T13:17:58;102831.28;;;17.04;100.00
64192;BME280;50497;50.720;-2.084;2023-04-03T13:20:29;102828.25;;;16.43;100.00
64192;BME280;50497;50.720;-2.084;2023-04-03T13:23:04;102797.06;;;18.45;100.00
64192;BME280;50497;50.720;-2.084;2023-04-03T13:25:33;102819.22;;;19.80;97.14
64192;BME280;50497;50.720;-2.084;2023-04-03T13:28:04;102823.84;;;18.32;81.42
64192;BME280;50497;50.720;-2.084;2023-04-03T13:30:36;102823.56;;;17.37;100.00
64192;BME280;50497;50.720;-2.084;2023-04-03T13:33:05;102816.59;;;17.72;94.44
64192;BME280;50497;50.720;-2.084;2023-04-03T13:35:39;102814.53;;;17.16;100.00
64192;BME280;50497;50.720;-2.084;2023-04-03T13:38:28;102816.19;;;17.61;86.14
64192;BME280;50497;50.720;-2.084;2023-04-03T13:41:01;102810.59;;;17.45;100.00
64192;BME280;50497;50.720;-2.084;2023-04-03T13:43:30;102809.09;;;16.26;100.00
64192;BME280;50497;50.720;-2.084;2023-04-03T13:46:01;102804.22;;;18.08;100.00
64192;BME280;50497;50.720;-2.084;2023-04-03T13:48:36;102788.09;;;18.81;100.00
64192;BME280;50497;50.720;-2.084;2023-04-03T13:51:16;102769.44;;;18.18;95.47
64192;BME280;50497;50.720;-2.084;2023-04-03T13:53:49;102804.19;;;16.81;100.00
64192;BME280;50497;50.720;-2.084;2023-04-03T13:58:54;102786.88;;;17.09;100.00
64192;BME280;50497;50.720;-2.084;2023-04-03T14:01:23;102782.50;;;17.48;100.00
64192;BME280;50497;50.720;-2.084;2023-04-03T14:03:57;102778.63;;;17.33;100.00
64192;BME280;50497;50.720;-2.084;2023-04-03T14:06:24;102784.22;;;16.18;100.00
64192;BME280;50497;50.720;-2.084;2023-04-03T14:08:54;102769.09;;;17.45;100.00
64192;BME280;50497;50.720;-2.084;2023-04-03T14:11:26;102764.91;;;16.51;100.00
64192;BME280;50497;50.720;-2.084;2023-04-03T14:14:01;102762.88;;;17.43;100.00
64192;BME280;50497;50.720;-2.084;2023-04-03T14:16:32;102764.66;;;16.11;100.00
64192;BME280;50497;50.720;-2.084;2023-04-03T14:19:00;102754.28;;;16.24;100.00
64192;BME280;50497;50.720;-2.084;2023-04-03T14:21:26;102745.06;;;16.74;100.00
64192;BME280;50497;50.720;-2.084;2023-04-03T14:23:52;102728.25;;;16.21;100.00
64192;BME280;50497;50.720;-2.084;2023-04-03T14:26:23;102756.25;;;16.42;100.00
64192;BME280;50497;50.720;-2.084;2023-04-03T14:28:54;102749.97;;;17.29;100.00
64192;BME280;50497;50.720;-2.084;2023-04-03T14:31:24;102726.31;;;16.25;100.00